Time,TemperatureF,DewpointF,PressureIn,WindDirection,WindDirectionDegrees,WindSpeedMPH,WindSpeedGustMPH,Humidity,HourlyPrecipIn,Conditions,Clouds,dailyrainin,SoftwareType,DateUTC
2013-03-14 00:01:00,21.9,9.0,30.23,South,181,2.7,3.1,57,0.00,,---,0.00,VWS V14.00,2013-03-14 05:01:00,
2013-03-14 00:06:00,22.1,9.6,30.23,South,180,2.7,3.1,58,0.00,,---,0.00,VWS V14.00,2013-03-14 05:06:00,
2013-03-14 00:11:00,22.3,9.8,30.23,South,180,0.0,0.0,58,0.00,,---,0.00,VWS V14.00,2013-03-14 05:11:00,
2013-03-14 00:17:00,22.6,10.1,30.20,SSE,168,4.0,4.0,58,0.00,,---,0.00,VWS V14.00,2013-03-14 05:17:00,
2013-03-14 00:22:00,22.8,10.6,30.20,SE,124,3.1,4.9,59,0.00,,---,0.00,VWS V14.00,2013-03-14 05:22:00,
2013-03-14 00:27:00,23.0,10.8,30.20,SE,144,2.7,4.9,59,0.00,,---,0.00,VWS V14.00,2013-03-14 05:27:00,
2013-03-14 00:32:00,23.4,10.8,30.20,SE,142,2.7,4.0,58,0.00,,---,0.00,VWS V14.00,2013-03-14 05:32:00,
2013-03-14 00:37:00,23.4,10.8,30.20,SE,136,0.0,3.6,58,0.00,,---,0.00,VWS V14.00,2013-03-14 05:37:00,
2013-03-14 00:42:00,23.5,10.9,30.20,SE,137,2.7,3.1,58,0.00,,---,0.00,VWS V14.00,2013-03-14 05:42:00,
2013-03-14 00:47:00,23.5,10.9,30.20,SSE,157,4.0,4.0,58,0.00,,---,0.00,VWS V14.00,2013-03-14 05:47:00,
2013-03-14 00:52:00,23.7,11.1,30.20,SE,146,4.9,4.9,58,0.00,,---,0.00,VWS V14.00,2013-03-14 05:52:00,
2013-03-14 00:57:00,23.9,11.3,30.20,South,173,3.1,3.6,58,0.00,,---,0.00,VWS V14.00,2013-03-14 05:57:00,
2013-03-14 01:02:00,23.9,11.3,30.20,SSE,163,3.1,3.1,58,0.00,,---,0.00,VWS V14.00,2013-03-14 06:02:00,
2013-03-14 01:07:00,24.3,11.6,30.20,South,170,2.7,3.1,58,0.00,,---,0.00,VWS V14.00,2013-03-14 06:07:00,
2013-03-14 01:12:00,24.3,11.6,30.20,South,175,3.6,4.9,58,0.00,,---,0.00,VWS V14.00,2013-03-14 06:12:00,
2013-03-14 01:17:00,24.4,11.8,30.20,SSE,154,2.7,3.1,58,0.00,,---,0.00,VWS V14.00,2013-03-14 06:17:00,
2013-03-14 01:22:00,24.4,11.8,30.20,South,169,2.7,3.1,58,0.00,,---,0.00,VWS V14.00,2013-03-14 06:22:00,
2013-03-14 01:27:00,24.6,12.0,30.20,SSE,162,2.7,3.6,58,0.00,,---,0.00,VWS V14.00,2013-03-14 06:27:00,
2013-03-14 01:32:00,24.6,12.0,30.20,South,180,4.0,4.0,58,0.00,,---,0.00,VWS V14.00,2013-03-14 06:32:00,
2013-03-14 01:38:00,24.8,12.1,30.20,ESE,120,3.1,4.0,58,0.00,,---,0.00,VWS V14.00,2013-03-14 06:38:00,
2013-03-14 01:43:00,24.8,12.1,30.20,SSE,150,2.2,3.6,58,0.00,,---,0.00,VWS V14.00,2013-03-14 06:43:00,
2013-03-14 01:48:00,25.0,12.3,30.20,SSE,150,2.7,2.7,58,0.00,,---,0.00,VWS V14.00,2013-03-14 06:48:00,
2013-03-14 01:53:00,25.0,12.3,30.20,SSE,149,2.2,3.1,58,0.00,,---,0.00,VWS V14.00,2013-03-14 06:53:00,
2013-03-14 01:58:00,25.2,12.5,30.20,SSE,149,2.2,2.7,58,0.00,,---,0.00,VWS V14.00,2013-03-14 06:58:00,
2013-03-14 02:03:00,25.2,12.5,30.20,SSE,147,0.0,3.6,58,0.00,,---,0.00,VWS V14.00,2013-03-14 07:03:00,
2013-03-14 02:08:00,25.2,12.5,30.20,SE,144,3.1,3.1,58,0.00,,---,0.00,VWS V14.00,2013-03-14 07:08:00,
2013-03-14 02:13:00,25.2,12.5,30.17,SE,141,2.2,2.7,58,0.00,,---,0.00,VWS V14.00,2013-03-14 07:13:00,
2013-03-14 02:18:00,25.2,12.5,30.17,SE,141,0.0,3.1,58,0.00,,---,0.00,VWS V14.00,2013-03-14 07:18:00,
2013-03-14 02:23:00,25.2,12.5,30.17,SE,141,3.1,3.1,58,0.00,,---,0.00,VWS V14.00,2013-03-14 07:23:00,
2013-03-14 02:28:00,25.2,12.5,30.17,SE,142,2.7,4.5,58,0.00,,---,0.00,VWS V14.00,2013-03-14 07:28:00,
2013-03-14 02:33:00,25.2,12.5,30.17,SSE,156,3.1,3.6,58,0.00,,---,0.00,VWS V14.00,2013-03-14 07:33:00,
2013-03-14 02:38:00,25.2,12.5,30.17,SSW,193,3.1,4.0,58,0.00,,---,0.00,VWS V14.00,2013-03-14 07:38:00,
2013-03-14 02:43:00,25.2,12.5,30.17,SE,129,2.7,3.6,58,0.00,,---,0.00,VWS V14.00,2013-03-14 07:43:00,
2013-03-14 02:48:00,25.2,12.1,30.17,SSE,154,2.7,4.0,57,0.00,,---,0.00,VWS V14.00,2013-03-14 07:48:00,
2013-03-14 02:53:00,25.2,12.1,30.17,SE,142,4.9,4.9,57,0.00,,---,0.00,VWS V14.00,2013-03-14 07:53:00,
2013-03-14 02:58:00,25.2,12.1,30.17,SSE,147,2.7,4.0,57,0.00,,---,0.00,VWS V14.00,2013-03-14 07:58:00,
2013-03-14 03:03:00,25.2,12.1,30.17,SSE,162,2.7,4.5,57,0.00,,---,0.00,VWS V14.00,2013-03-14 08:03:00,
2013-03-14 03:08:00,25.2,12.1,30.17,SSE,155,2.7,2.7,57,0.00,,---,0.00,VWS V14.00,2013-03-14 08:08:00,
2013-03-14 03:13:00,25.3,12.2,30.17,SE,145,2.7,3.6,57,0.00,,---,0.00,VWS V14.00,2013-03-14 08:13:00,
2013-03-14 03:18:00,25.3,12.2,30.17,SE,145,4.0,4.0,57,0.00,,---,0.00,VWS V14.00,2013-03-14 08:18:00,
2013-03-14 03:23:00,25.3,12.2,30.17,SE,145,3.1,4.0,57,0.00,,---,0.00,VWS V14.00,2013-03-14 08:23:00,
2013-03-14 03:28:00,25.3,11.9,30.17,SSE,159,3.1,4.0,56,0.00,,---,0.00,VWS V14.00,2013-03-14 08:28:00,
2013-03-14 03:33:00,25.3,11.9,30.17,SSE,153,5.4,5.4,56,0.00,,---,0.00,VWS V14.00,2013-03-14 08:33:00,
2013-03-14 03:39:00,25.3,11.9,30.17,SSE,152,4.0,6.3,56,0.00,,---,0.00,VWS V14.00,2013-03-14 08:39:00,
2013-03-14 03:44:00,25.0,11.5,30.17,SE,146,2.7,3.6,56,0.00,,---,0.00,VWS V14.00,2013-03-14 08:44:00,
2013-03-14 03:49:00,24.6,11.6,30.17,SE,126,3.1,5.4,57,0.00,,---,0.00,VWS V14.00,2013-03-14 08:49:00,
2013-03-14 03:54:00,24.4,11.8,30.17,ESE,112,3.1,5.4,58,0.00,,---,0.00,VWS V14.00,2013-03-14 08:54:00,
2013-03-14 03:59:00,24.3,12.4,30.17,ESE,117,2.2,2.7,60,0.00,,---,0.00,VWS V14.00,2013-03-14 08:59:00,
2013-03-14 04:04:00,24.1,12.6,30.17,South,170,3.6,5.4,61,0.00,,---,0.00,VWS V14.00,2013-03-14 09:04:00,
2013-03-14 04:09:00,23.9,13.1,30.17,South,171,2.7,3.1,63,0.00,,---,0.00,VWS V14.00,2013-03-14 09:09:00,
2013-03-14 04:14:00,23.9,13.5,30.17,ESE,122,3.1,3.6,64,0.00,,---,0.00,VWS V14.00,2013-03-14 09:14:00,
2013-03-14 04:19:00,23.9,14.6,30.17,East,82,3.1,4.0,67,0.00,,---,0.00,VWS V14.00,2013-03-14 09:19:00,
2013-03-14 04:24:00,23.7,15.4,30.17,ESE,105,4.5,5.4,70,0.00,,---,0.00,VWS V14.00,2013-03-14 09:24:00,
2013-03-14 04:29:00,23.7,16.0,30.14,East,100,5.8,6.3,72,0.00,,---,0.00,VWS V14.00,2013-03-14 09:29:00,
2013-03-14 04:34:00,23.7,16.4,30.14,East,86,3.1,5.8,73,0.00,,---,0.00,VWS V14.00,2013-03-14 09:34:00,
2013-03-14 04:39:00,23.9,17.1,30.14,East,96,5.4,5.4,75,0.00,,---,0.00,VWS V14.00,2013-03-14 09:39:00,
2013-03-14 04:44:00,23.9,17.5,30.14,SE,139,2.2,3.6,76,0.00,,---,0.00,VWS V14.00,2013-03-14 09:44:00,
2013-03-14 04:49:00,23.9,17.8,30.14,ESE,122,4.9,4.9,77,0.00,,---,0.00,VWS V14.00,2013-03-14 09:49:00,
2013-03-14 04:54:00,23.9,17.8,30.14,ESE,119,2.7,4.0,77,0.00,,---,0.00,VWS V14.00,2013-03-14 09:54:00,
2013-03-14 04:59:00,23.9,18.0,30.14,ESE,107,2.7,3.1,78,0.00,,---,0.00,VWS V14.00,2013-03-14 09:59:00,
2013-03-14 05:04:00,23.9,18.4,30.14,ESE,116,2.7,3.6,79,0.00,,---,0.00,VWS V14.00,2013-03-14 10:04:00,
2013-03-14 05:09:00,23.7,18.2,30.14,SE,124,2.2,2.7,79,0.00,,---,0.00,VWS V14.00,2013-03-14 10:09:00,
2013-03-14 05:14:00,23.7,18.5,30.14,ESE,112,2.7,4.0,80,0.00,,---,0.00,VWS V14.00,2013-03-14 10:14:00,
2013-03-14 05:19:00,23.7,18.5,30.14,ESE,115,4.9,4.9,80,0.00,,---,0.00,VWS V14.00,2013-03-14 10:19:00,
2013-03-14 05:24:00,23.7,18.8,30.14,SE,127,3.6,3.6,81,0.00,,---,0.00,VWS V14.00,2013-03-14 10:24:00,
2013-03-14 05:29:00,23.7,18.8,30.14,ESE,118,4.9,4.9,81,0.00,,---,0.00,VWS V14.00,2013-03-14 10:29:00,
2013-03-14 05:34:00,23.7,18.8,30.14,ESE,114,5.4,5.4,81,0.00,,---,0.00,VWS V14.00,2013-03-14 10:34:00,
2013-03-14 05:40:00,23.7,19.0,30.14,ESE,107,4.0,6.3,82,0.00,,---,0.00,VWS V14.00,2013-03-14 10:40:00,
2013-03-14 05:45:00,23.5,19.1,30.11,SSE,148,3.1,4.0,83,0.00,,---,0.00,VWS V14.00,2013-03-14 10:45:00,
2013-03-14 05:50:00,23.7,19.3,30.11,SE,131,6.3,6.3,83,0.00,,---,0.00,VWS V14.00,2013-03-14 10:50:00,
2013-03-14 05:55:00,23.7,19.6,30.11,ESE,119,5.4,5.4,84,0.00,,---,0.00,VWS V14.00,2013-03-14 10:55:00,
2013-03-14 06:00:00,23.7,19.6,30.11,SE,128,3.6,5.8,84,0.00,,---,0.00,VWS V14.00,2013-03-14 11:00:00,
2013-03-14 06:05:00,23.7,19.9,30.11,SE,140,5.4,8.3,85,0.00,,---,0.00,VWS V14.00,2013-03-14 11:05:00,
2013-03-14 06:10:00,23.7,19.9,30.11,ESE,117,5.4,8.3,85,0.00,,---,0.00,VWS V14.00,2013-03-14 11:10:00,
2013-03-14 06:15:00,23.7,19.9,30.11,ESE,119,4.0,5.8,85,0.00,,---,0.00,VWS V14.00,2013-03-14 11:15:00,
2013-03-14 06:20:00,23.7,19.9,30.11,ESE,102,4.0,4.0,85,0.00,,---,0.00,VWS V14.00,2013-03-14 11:20:00,
2013-03-14 06:25:00,23.7,19.9,30.11,SE,140,3.1,6.3,85,0.00,,---,0.00,VWS V14.00,2013-03-14 11:25:00,
2013-03-14 06:30:00,23.7,19.9,30.11,SE,142,3.1,5.4,85,0.00,,---,0.00,VWS V14.00,2013-03-14 11:30:00,
2013-03-14 06:35:00,23.7,19.9,30.11,ESE,109,3.1,5.4,85,0.00,,---,0.00,VWS V14.00,2013-03-14 11:35:00,
2013-03-14 06:40:00,23.7,19.9,30.11,SSE,159,3.6,4.0,85,0.00,,---,0.00,VWS V14.00,2013-03-14 11:40:00,
2013-03-14 06:45:00,23.7,19.9,30.08,SE,138,3.1,5.8,85,0.00,,---,0.00,VWS V14.00,2013-03-14 11:45:00,
2013-03-14 06:50:00,23.9,20.1,30.08,SE,145,4.9,4.9,85,0.00,,---,0.00,VWS V14.00,2013-03-14 11:50:00,
2013-03-14 06:55:00,23.9,20.3,30.08,ESE,114,3.6,6.3,86,0.00,,---,0.00,VWS V14.00,2013-03-14 11:55:00,
2013-03-14 07:00:00,23.9,20.3,30.08,ESE,116,4.9,5.8,86,0.00,,---,0.00,VWS V14.00,2013-03-14 12:00:00,
2013-03-14 07:05:00,23.9,20.3,30.08,SE,128,4.0,5.8,86,0.00,,---,0.00,VWS V14.00,2013-03-14 12:05:00,
2013-03-14 07:10:00,24.1,20.5,30.08,SE,125,5.4,5.4,86,0.00,,---,0.00,VWS V14.00,2013-03-14 12:10:00,
2013-03-14 07:15:00,24.1,20.5,30.08,ESE,103,5.8,5.8,86,0.00,,---,0.00,VWS V14.00,2013-03-14 12:15:00,
2013-03-14 07:20:00,24.1,20.8,30.08,SE,130,3.1,4.0,87,0.00,,---,0.00,VWS V14.00,2013-03-14 12:20:00,
2013-03-14 07:25:00,24.3,21.0,30.08,SSE,154,4.0,5.8,87,0.00,,---,0.00,VWS V14.00,2013-03-14 12:25:00,
2013-03-14 07:30:00,24.3,21.0,30.08,East,98,4.0,5.4,87,0.00,,---,0.00,VWS V14.00,2013-03-14 12:30:00,
2013-03-14 07:35:00,24.3,21.0,30.08,ESE,109,2.2,3.6,87,0.00,,---,0.00,VWS V14.00,2013-03-14 12:35:00,
2013-03-14 07:40:00,24.4,21.1,30.08,SSE,168,4.0,5.4,87,0.00,,---,0.00,VWS V14.00,2013-03-14 12:40:00,
2013-03-14 07:45:00,24.4,21.1,30.08,SE,146,3.1,7.6,87,0.00,,---,0.00,VWS V14.00,2013-03-14 12:45:00,
2013-03-14 07:50:00,24.4,21.1,30.08,SE,128,4.9,7.6,87,0.00,,---,0.00,VWS V14.00,2013-03-14 12:50:00,
2013-03-14 07:55:00,24.6,21.3,30.08,ESE,120,3.6,3.6,87,0.00,,---,0.00,VWS V14.00,2013-03-14 12:55:00,
2013-03-14 08:00:00,24.6,21.3,30.08,South,177,3.6,4.9,87,0.00,,---,0.00,VWS V14.00,2013-03-14 13:00:00,
2013-03-14 08:05:00,24.8,21.5,30.08,SSE,152,3.1,4.9,87,0.00,,---,0.00,VWS V14.00,2013-03-14 13:05:00,
2013-03-14 08:10:00,25.0,21.7,30.08,SE,133,2.7,5.4,87,0.00,,---,0.00,VWS V14.00,2013-03-14 13:10:00,
2013-03-14 08:16:00,25.3,22.0,30.11,ESE,121,3.1,3.6,87,0.00,,---,0.00,VWS V14.00,2013-03-14 13:16:00,
2013-03-14 08:21:00,25.5,22.2,30.11,SSE,154,4.0,5.8,87,0.00,,---,0.00,VWS V14.00,2013-03-14 13:21:00,
2013-03-14 08:26:00,25.9,22.5,30.11,ESE,121,5.8,6.7,87,0.00,,---,0.00,VWS V14.00,2013-03-14 13:26:00,
2013-03-14 08:31:00,26.4,23.1,30.08,South,177,3.1,5.4,87,0.00,,---,0.00,VWS V14.00,2013-03-14 13:31:00,
2013-03-14 08:36:00,27.0,23.6,30.08,SE,136,5.4,5.4,87,0.00,,---,0.00,VWS V14.00,2013-03-14 13:36:00,
2013-03-14 08:41:00,27.5,24.1,30.08,SE,125,3.6,5.8,87,0.00,,---,0.00,VWS V14.00,2013-03-14 13:41:00,
2013-03-14 08:46:00,28.0,24.4,30.11,SE,126,2.2,5.4,86,0.00,,---,0.00,VWS V14.00,2013-03-14 13:46:00,
2013-03-14 08:51:00,28.6,24.6,30.11,SE,124,3.1,4.0,85,0.00,,---,0.00,VWS V14.00,2013-03-14 13:51:00,
2013-03-14 08:56:00,28.9,24.7,30.11,SE,133,2.7,3.6,84,0.00,,---,0.00,VWS V14.00,2013-03-14 13:56:00,
2013-03-14 09:01:00,29.3,24.8,30.11,SE,133,2.7,5.4,83,0.00,,---,0.00,VWS V14.00,2013-03-14 14:01:00,
2013-03-14 09:06:00,29.8,25.0,30.11,SE,140,0.0,3.1,82,0.00,,---,0.00,VWS V14.00,2013-03-14 14:06:00,
2013-03-14 09:11:00,30.2,25.1,30.11,ESE,123,3.1,4.0,81,0.00,,---,0.00,VWS V14.00,2013-03-14 14:11:00,
2013-03-14 09:16:00,30.6,25.1,30.11,ESE,113,3.1,4.0,80,0.00,,---,0.00,VWS V14.00,2013-03-14 14:16:00,
2013-03-14 09:21:00,31.1,25.4,30.11,East,100,5.8,5.8,79,0.00,,---,0.00,VWS V14.00,2013-03-14 14:21:00,
2013-03-14 09:26:00,31.8,26.1,30.11,ESE,118,3.1,6.3,79,0.00,,---,0.00,VWS V14.00,2013-03-14 14:26:00,
2013-03-14 09:32:00,33.1,27.3,30.11,SSE,156,5.4,5.4,79,0.00,,---,0.00,VWS V14.00,2013-03-14 14:32:00,
2013-03-14 09:37:00,33.6,27.5,30.11,ESE,104,6.3,6.3,78,0.00,,---,0.00,VWS V14.00,2013-03-14 14:37:00,
2013-03-14 09:42:00,33.6,26.9,30.11,SE,131,2.7,5.4,76,0.00,,---,0.00,VWS V14.00,2013-03-14 14:42:00,
2013-03-14 09:47:00,34.0,26.9,30.11,ESE,121,3.1,3.1,75,0.00,,---,0.00,VWS V14.00,2013-03-14 14:47:00,
2013-03-14 09:52:00,34.5,27.4,30.11,ESE,112,3.6,5.8,75,0.00,,---,0.00,VWS V14.00,2013-03-14 14:52:00,
2013-03-14 09:57:00,34.9,26.8,30.11,ESE,120,3.1,4.0,72,0.00,,---,0.00,VWS V14.00,2013-03-14 14:57:00,
2013-03-14 10:02:00,35.1,23.0,30.11,SE,138,3.6,4.0,61,0.00,,---,0.00,VWS V14.00,2013-03-14 15:02:00,
2013-03-14 10:07:00,35.8,23.7,30.11,East,81,6.3,6.3,61,0.00,,---,0.00,VWS V14.00,2013-03-14 15:07:00,
2013-03-14 10:12:00,36.1,22.8,30.11,ESE,120,4.0,6.3,58,0.00,,---,0.00,VWS V14.00,2013-03-14 15:12:00,
2013-03-14 10:17:00,36.7,22.5,30.11,ESE,116,3.6,4.9,56,0.00,,---,0.00,VWS V14.00,2013-03-14 15:17:00,
2013-03-14 10:22:00,37.4,22.7,30.11,South,171,3.1,4.0,55,0.00,,---,0.00,VWS V14.00,2013-03-14 15:22:00,
2013-03-14 10:27:00,38.5,23.7,30.11,ESE,122,3.6,6.3,55,0.00,,---,0.00,VWS V14.00,2013-03-14 15:27:00,
2013-03-14 10:32:00,39.4,23.2,30.11,SE,124,4.0,4.0,52,0.00,,---,0.00,VWS V14.00,2013-03-14 15:32:00,
2013-03-14 10:37:00,40.6,23.9,30.11,East,96,2.7,5.8,51,0.00,,---,0.00,VWS V14.00,2013-03-14 15:37:00,
2013-03-14 10:42:00,42.1,23.8,30.08,SE,139,8.3,8.3,48,0.00,,---,0.00,VWS V14.00,2013-03-14 15:42:00,
2013-03-14 10:47:00,41.4,20.6,30.08,SE,132,5.8,6.3,43,0.00,,---,0.00,VWS V14.00,2013-03-14 15:47:00,
2013-03-14 10:53:00,41.7,21.4,30.08,East,90,3.6,3.6,44,0.00,,---,0.00,VWS V14.00,2013-03-14 15:53:00,
2013-03-14 10:58:00,42.3,20.8,30.11,SSE,159,5.4,5.4,42,0.00,,---,0.00,VWS V14.00,2013-03-14 15:58:00,
2013-03-14 11:03:00,43.0,20.9,30.11,SE,125,3.6,6.3,41,0.00,,---,0.00,VWS V14.00,2013-03-14 16:03:00,
2013-03-14 11:08:00,43.3,20.6,30.11,SE,138,5.4,5.4,40,0.00,,---,0.00,VWS V14.00,2013-03-14 16:08:00,
2013-03-14 11:13:00,43.7,20.4,30.11,East,88,5.4,6.3,39,0.00,,---,0.00,VWS V14.00,2013-03-14 16:13:00,
2013-03-14 11:18:00,44.2,21.5,30.11,SE,138,5.8,5.8,40,0.00,,---,0.00,VWS V14.00,2013-03-14 16:18:00,
2013-03-14 11:23:00,45.3,22.4,30.11,SSE,167,4.9,4.9,40,0.00,,---,0.00,VWS V14.00,2013-03-14 16:23:00,
2013-03-14 11:28:00,46.4,22.2,30.08,SE,127,5.4,7.6,38,0.00,,---,0.00,VWS V14.00,2013-03-14 16:28:00,
2013-03-14 11:33:00,45.7,21.5,30.08,South,171,3.6,4.9,38,0.00,,---,0.00,VWS V14.00,2013-03-14 16:33:00,
2013-03-14 11:38:00,45.1,21.1,30.08,SSE,162,0.0,4.0,38,0.00,,---,0.00,VWS V14.00,2013-03-14 16:38:00,
2013-03-14 11:43:00,46.0,21.9,30.08,SSE,149,3.6,5.4,38,0.00,,---,0.00,VWS V14.00,2013-03-14 16:43:00,
2013-03-14 11:48:00,46.9,22.7,30.08,SE,131,2.7,2.7,38,0.00,,---,0.00,VWS V14.00,2013-03-14 16:48:00,
2013-03-14 11:53:00,48.6,23.5,30.08,SE,140,5.4,5.8,37,0.00,,---,0.00,VWS V14.00,2013-03-14 16:53:00,
2013-03-14 11:58:00,49.8,24.6,30.08,South,171,5.4,8.3,37,0.00,,---,0.00,VWS V14.00,2013-03-14 16:58:00,
2013-03-14 12:03:00,51.3,25.2,30.08,South,184,3.1,3.6,36,0.04,,---,0.04,VWS V14.00,2013-03-14 17:03:00,
2013-03-14 12:08:00,51.6,25.6,30.08,ESE,103,0.0,2.7,36,0.04,,---,0.04,VWS V14.00,2013-03-14 17:08:00,
2013-03-14 12:13:00,51.4,24.0,30.08,SSW,194,3.1,4.9,34,0.04,,---,0.04,VWS V14.00,2013-03-14 17:13:00,
2013-03-14 12:18:00,50.9,22.8,30.08,SW,229,4.0,4.0,33,0.04,,---,0.04,VWS V14.00,2013-03-14 17:18:00,
2013-03-14 12:23:00,51.1,23.0,30.08,SSW,210,3.6,5.4,33,0.04,,---,0.04,VWS V14.00,2013-03-14 17:23:00,
2013-03-14 12:28:00,50.0,21.3,30.11,SW,214,5.4,7.6,32,0.04,,---,0.04,VWS V14.00,2013-03-14 17:28:00,
2013-03-14 12:33:00,50.7,22.7,30.11,SSW,193,0.0,0.0,33,0.04,,---,0.04,VWS V14.00,2013-03-14 17:33:00,
2013-03-14 12:38:00,50.4,21.6,30.11,SSE,162,5.8,6.3,32,0.04,,---,0.04,VWS V14.00,2013-03-14 17:38:00,
2013-03-14 12:43:00,50.2,21.5,30.11,WSW,237,4.0,5.8,32,0.04,,---,0.04,VWS V14.00,2013-03-14 17:43:00,
2013-03-14 12:48:00,50.0,21.3,30.11,WSW,248,0.0,2.7,32,0.04,,---,0.04,VWS V14.00,2013-03-14 17:48:00,
2013-03-14 12:53:00,50.4,21.6,30.11,WNW,303,3.6,5.8,32,0.04,,---,0.04,VWS V14.00,2013-03-14 17:53:00,
2013-03-14 12:58:00,50.0,21.3,30.11,NNW,327,4.0,5.4,32,0.04,,---,0.04,VWS V14.00,2013-03-14 17:58:00,
2013-03-14 13:03:00,48.7,20.9,30.11,North,0,3.1,5.4,33,0.04,,---,0.04,VWS V14.00,2013-03-14 18:03:00,
2013-03-14 13:08:00,48.4,20.6,30.11,NNE,16,2.2,3.1,33,0.00,,---,0.04,VWS V14.00,2013-03-14 18:08:00,
2013-03-14 13:13:00,48.9,21.1,30.08,NNE,15,0.0,3.1,33,0.00,,---,0.04,VWS V14.00,2013-03-14 18:13:00,
2013-03-14 13:18:00,50.2,22.9,30.08,NNE,13,3.6,4.9,34,0.00,,---,0.04,VWS V14.00,2013-03-14 18:18:00,
2013-03-14 13:23:00,51.3,23.2,30.08,NNE,32,3.6,4.9,33,0.00,,---,0.04,VWS V14.00,2013-03-14 18:23:00,
2013-03-14 13:28:00,51.3,23.2,30.08,East,95,3.1,4.0,33,0.00,,---,0.04,VWS V14.00,2013-03-14 18:28:00,
2013-03-14 13:33:00,51.6,23.5,30.08,North,10,4.9,5.8,33,0.00,,---,0.04,VWS V14.00,2013-03-14 18:33:00,
2013-03-14 13:38:00,52.0,22.3,30.08,North,7,5.4,5.8,31,0.00,,---,0.04,VWS V14.00,2013-03-14 18:38:00,
2013-03-14 13:44:00,51.3,22.4,30.08,NNE,13,2.7,3.6,32,0.00,,---,0.04,VWS V14.00,2013-03-14 18:44:00,
2013-03-14 13:49:00,51.3,22.4,30.08,NNE,12,0.0,2.2,32,0.00,,---,0.04,VWS V14.00,2013-03-14 18:49:00,
2013-03-14 13:54:00,52.5,23.5,30.08,NNW,340,2.2,3.1,32,0.00,,---,0.04,VWS V14.00,2013-03-14 18:54:00,
2013-03-14 13:59:00,53.6,23.7,30.08,NE,50,3.6,4.0,31,0.00,,---,0.04,VWS V14.00,2013-03-14 18:59:00,
2013-03-14 14:04:00,53.1,23.2,30.08,ESE,115,2.7,3.6,31,0.00,,---,0.04,VWS V14.00,2013-03-14 19:04:00,
2013-03-14 14:09:00,51.6,21.2,30.08,SSE,150,2.7,4.5,30,0.00,,---,0.04,VWS V14.00,2013-03-14 19:09:00,
2013-03-14 14:14:00,50.2,20.7,30.08,East,85,4.0,5.4,31,0.00,,---,0.04,VWS V14.00,2013-03-14 19:14:00,
2013-03-14 14:19:00,49.5,20.9,30.08,SSE,158,3.6,3.6,32,0.00,,---,0.04,VWS V14.00,2013-03-14 19:19:00,
2013-03-14 14:24:00,50.4,21.6,30.08,WSW,245,4.0,4.0,32,0.00,,---,0.04,VWS V14.00,2013-03-14 19:24:00,
2013-03-14 14:29:00,51.3,22.4,30.08,North,0,2.7,4.9,32,0.00,,---,0.04,VWS V14.00,2013-03-14 19:29:00,
2013-03-14 14:34:00,52.0,22.3,30.08,SSE,158,0.0,0.0,31,0.00,,---,0.04,VWS V14.00,2013-03-14 19:34:00,
2013-03-14 14:39:00,52.9,23.1,30.08,WNW,288,2.2,3.6,31,0.00,,---,0.04,VWS V14.00,2013-03-14 19:39:00,
2013-03-14 14:44:00,53.1,22.5,30.08,North,2,3.1,4.0,30,0.00,,---,0.04,VWS V14.00,2013-03-14 19:44:00,
2013-03-14 14:49:00,52.3,22.6,30.08,East,97,2.7,2.7,31,0.00,,---,0.04,VWS V14.00,2013-03-14 19:49:00,
2013-03-14 14:54:00,52.2,22.5,30.08,South,187,2.2,2.7,31,0.00,,---,0.04,VWS V14.00,2013-03-14 19:54:00,
2013-03-14 14:59:00,51.4,21.1,30.08,SE,137,3.1,3.1,30,0.00,,---,0.04,VWS V14.00,2013-03-14 19:59:00,
2013-03-14 15:04:00,50.4,20.1,30.08,SSE,153,4.0,4.0,30,0.00,,---,0.04,VWS V14.00,2013-03-14 20:04:00,
2013-03-14 15:09:00,50.2,20.7,30.08,South,182,2.2,3.1,31,0.00,,---,0.04,VWS V14.00,2013-03-14 20:09:00,
2013-03-14 15:14:00,50.7,21.2,30.05,SSE,165,2.7,4.0,31,0.00,,---,0.04,VWS V14.00,2013-03-14 20:14:00,
2013-03-14 15:19:00,50.0,20.6,30.05,SE,139,2.7,4.0,31,0.00,,---,0.04,VWS V14.00,2013-03-14 20:19:00,
2013-03-14 15:24:00,50.0,20.6,30.05,SE,126,3.1,3.1,31,0.00,,---,0.04,VWS V14.00,2013-03-14 20:24:00,
2013-03-14 15:29:00,48.9,19.6,30.05,ESE,119,3.1,5.8,31,0.00,,---,0.04,VWS V14.00,2013-03-14 20:29:00,
2013-03-14 15:34:00,48.9,20.4,30.05,ESE,123,2.7,4.0,32,0.00,,---,0.04,VWS V14.00,2013-03-14 20:34:00,
2013-03-14 15:39:00,50.0,21.3,30.05,East,88,2.7,3.6,32,0.00,,---,0.04,VWS V14.00,2013-03-14 20:39:00,
2013-03-14 15:44:00,50.9,22.1,30.08,East,88,0.0,2.2,32,0.00,,---,0.04,VWS V14.00,2013-03-14 20:44:00,
2013-03-14 15:49:00,51.1,21.5,30.08,NW,305,5.8,5.8,31,0.00,,---,0.04,VWS V14.00,2013-03-14 20:49:00,
2013-03-14 15:54:00,50.5,21.0,30.08,NW,320,4.0,4.0,31,0.00,,---,0.04,VWS V14.00,2013-03-14 20:54:00,
2013-03-14 15:59:00,49.1,20.5,30.08,NW,315,0.0,4.0,32,0.00,,---,0.04,VWS V14.00,2013-03-14 20:59:00,
2013-03-14 16:04:00,48.7,20.2,30.08,WNW,296,0.0,2.2,32,0.00,,---,0.04,VWS V14.00,2013-03-14 21:04:00,
2013-03-14 16:09:00,48.7,20.2,30.08,SSW,208,3.1,4.0,32,0.00,,---,0.04,VWS V14.00,2013-03-14 21:09:00,
2013-03-14 16:14:00,48.7,20.2,30.08,WSW,244,2.7,4.0,32,0.00,,---,0.04,VWS V14.00,2013-03-14 21:14:00,
2013-03-14 16:19:00,48.6,20.1,30.08,WSW,253,3.1,3.1,32,0.00,,---,0.04,VWS V14.00,2013-03-14 21:19:00,
2013-03-14 16:24:00,48.6,20.8,30.08,WSW,245,4.0,4.0,33,0.00,,---,0.04,VWS V14.00,2013-03-14 21:24:00,
2013-03-14 16:29:00,49.1,21.3,30.08,SW,222,4.0,5.4,33,0.00,,---,0.04,VWS V14.00,2013-03-14 21:29:00,
2013-03-14 16:34:00,49.8,21.9,30.08,SSW,211,3.6,5.8,33,0.00,,---,0.04,VWS V14.00,2013-03-14 21:34:00,
2013-03-14 16:39:00,50.2,21.5,30.08,SSE,151,3.1,3.1,32,0.00,,---,0.04,VWS V14.00,2013-03-14 21:39:00,
2013-03-14 16:44:00,50.0,21.3,30.08,SE,124,3.1,3.6,32,0.00,,---,0.04,VWS V14.00,2013-03-14 21:44:00,
2013-03-14 16:49:00,49.8,21.2,30.08,SSE,163,4.9,5.4,32,0.00,,---,0.04,VWS V14.00,2013-03-14 21:49:00,
2013-03-14 16:54:00,49.5,20.9,30.08,SW,222,2.7,4.0,32,0.00,,---,0.04,VWS V14.00,2013-03-14 21:54:00,
2013-03-14 17:00:00,48.9,20.4,30.05,South,171,3.6,4.0,32,0.00,,---,0.04,VWS V14.00,2013-03-14 22:00:00,
2013-03-14 17:05:00,48.0,20.3,30.05,South,187,3.6,3.6,33,0.00,,---,0.04,VWS V14.00,2013-03-14 22:05:00,
2013-03-14 17:10:00,47.5,19.8,30.05,SW,215,3.1,3.6,33,0.00,,---,0.04,VWS V14.00,2013-03-14 22:10:00,
2013-03-14 17:15:00,47.8,20.9,30.05,SSW,205,4.9,6.3,34,0.00,,---,0.04,VWS V14.00,2013-03-14 22:15:00,
2013-03-14 17:20:00,48.4,20.6,30.05,SSW,204,2.7,3.6,33,0.00,,---,0.04,VWS V14.00,2013-03-14 22:20:00,
2013-03-14 17:25:00,48.6,20.8,30.05,SSW,198,5.4,5.4,33,0.00,,---,0.04,VWS V14.00,2013-03-14 22:25:00,
2013-03-14 17:30:00,48.4,20.6,30.05,South,187,5.8,5.8,33,0.00,,---,0.04,VWS V14.00,2013-03-14 22:30:00,
2013-03-14 17:35:00,47.7,20.7,30.05,SE,146,2.7,4.0,34,0.00,,---,0.04,VWS V14.00,2013-03-14 22:35:00,
2013-03-14 17:40:00,47.1,20.2,30.05,WSW,244,2.2,3.6,34,0.00,,---,0.04,VWS V14.00,2013-03-14 22:40:00,
2013-03-14 17:45:00,46.6,19.7,30.05,SW,225,0.0,0.0,34,0.00,,---,0.04,VWS V14.00,2013-03-14 22:45:00,
2013-03-14 17:50:00,45.9,19.1,30.05,South,185,3.1,4.0,34,0.00,,---,0.04,VWS V14.00,2013-03-14 22:50:00,
2013-03-14 17:55:00,45.0,19.0,30.05,SSW,203,3.6,5.4,35,0.00,,---,0.04,VWS V14.00,2013-03-14 22:55:00,
2013-03-14 18:00:00,44.1,18.8,30.05,South,187,3.1,4.0,36,0.00,,---,0.04,VWS V14.00,2013-03-14 23:00:00,
2013-03-14 18:05:00,43.3,18.8,30.05,SW,224,3.1,5.4,37,0.00,,---,0.04,VWS V14.00,2013-03-14 23:05:00,
2013-03-14 18:10:00,42.4,18.6,30.05,WNW,291,2.7,3.6,38,0.00,,---,0.04,VWS V14.00,2013-03-14 23:10:00,
2013-03-14 18:15:00,41.5,18.4,30.05,WNW,291,3.1,4.9,39,0.00,,---,0.04,VWS V14.00,2013-03-14 23:15:00,
2013-03-14 18:20:00,40.5,18.6,30.05,WSW,241,5.4,5.4,41,0.00,,---,0.04,VWS V14.00,2013-03-14 23:20:00,
2013-03-14 18:25:00,39.9,18.1,30.05,SW,214,2.7,3.6,41,0.00,,---,0.04,VWS V14.00,2013-03-14 23:25:00,
2013-03-14 18:30:00,39.4,18.2,30.05,West,262,2.7,3.6,42,0.00,,---,0.04,VWS V14.00,2013-03-14 23:30:00,
2013-03-14 18:35:00,38.8,18.3,30.05,West,263,4.0,4.0,43,0.00,,---,0.04,VWS V14.00,2013-03-14 23:35:00,
2013-03-14 18:40:00,38.3,18.3,30.05,West,267,0.0,2.7,44,0.00,,---,0.04,VWS V14.00,2013-03-14 23:40:00,
2013-03-14 18:45:00,37.8,17.8,30.05,West,274,4.9,4.9,44,0.00,,---,0.04,VWS V14.00,2013-03-14 23:45:00,
2013-03-14 18:50:00,37.4,17.5,30.05,WSW,244,2.7,4.9,44,0.00,,---,0.04,VWS V14.00,2013-03-14 23:50:00,
2013-03-14 18:55:00,36.9,17.5,30.05,WSW,242,0.0,2.2,45,0.00,,---,0.04,VWS V14.00,2013-03-14 23:55:00,
2013-03-14 19:00:00,36.5,17.2,30.05,WSW,242,0.0,0.0,45,0.00,,---,0.04,VWS V14.00,2013-03-15 00:00:00,
2013-03-14 19:05:00,36.1,16.9,30.05,WSW,242,0.0,0.0,45,0.00,,---,0.04,VWS V14.00,2013-03-15 00:05:00,
2013-03-14 19:10:00,35.4,16.7,30.05,WSW,242,0.0,0.0,46,0.00,,---,0.04,VWS V14.00,2013-03-15 00:10:00,
2013-03-14 19:15:00,34.9,16.2,30.05,WSW,242,0.0,0.0,46,0.00,,---,0.04,VWS V14.00,2013-03-15 00:15:00,
2013-03-14 19:20:00,34.3,16.2,30.05,WSW,243,0.0,0.0,47,0.00,,---,0.04,VWS V14.00,2013-03-15 00:20:00,
2013-03-14 19:25:00,34.0,16.8,30.05,SW,236,3.1,4.0,49,0.00,,---,0.04,VWS V14.00,2013-03-15 00:25:00,
2013-03-14 19:31:00,33.8,17.1,30.05,WSW,251,2.2,2.7,50,0.00,,---,0.04,VWS V14.00,2013-03-15 00:31:00,
2013-03-14 19:36:00,33.8,17.6,30.05,WSW,253,6.3,6.3,51,0.00,,---,0.04,VWS V14.00,2013-03-15 00:36:00,
2013-03-14 19:41:00,33.6,17.9,30.05,SW,235,2.2,5.4,52,0.00,,---,0.04,VWS V14.00,2013-03-15 00:41:00,
2013-03-14 19:46:00,33.6,18.3,30.02,SW,235,3.1,3.1,53,0.00,,---,0.04,VWS V14.00,2013-03-15 00:46:00,
2013-03-14 19:51:00,33.6,18.3,30.02,WSW,239,3.1,3.1,53,0.00,,---,0.04,VWS V14.00,2013-03-15 00:51:00,
2013-03-14 19:56:00,33.4,18.2,30.02,WSW,239,2.2,3.1,53,0.00,,---,0.04,VWS V14.00,2013-03-15 00:56:00,
2013-03-14 20:01:00,33.3,18.4,30.05,SW,224,0.0,3.1,54,0.00,,---,0.04,VWS V14.00,2013-03-15 01:01:00,
2013-03-14 20:06:00,33.3,18.4,30.05,SW,233,2.7,3.6,54,0.00,,---,0.04,VWS V14.00,2013-03-15 01:06:00,
2013-03-14 20:11:00,33.1,18.3,30.02,SW,233,2.7,2.7,54,0.00,,---,0.04,VWS V14.00,2013-03-15 01:11:00,
2013-03-14 20:16:00,32.7,17.9,30.02,SW,233,2.2,3.6,54,0.00,,---,0.04,VWS V14.00,2013-03-15 01:16:00,
2013-03-14 20:21:00,32.5,17.8,30.02,SW,233,3.1,3.1,54,0.00,,---,0.04,VWS V14.00,2013-03-15 01:21:00,
2013-03-14 20:26:00,32.0,17.2,30.02,SW,229,2.7,3.6,54,0.00,,---,0.04,VWS V14.00,2013-03-15 01:26:00,
2013-03-14 20:32:00,31.6,16.9,30.02,SW,229,2.2,4.0,54,0.00,,---,0.04,VWS V14.00,2013-03-15 01:32:00,
2013-03-14 20:37:00,31.1,16.8,30.02,SW,229,2.7,3.6,55,0.00,,---,0.04,VWS V14.00,2013-03-15 01:37:00,
2013-03-14 20:42:00,30.9,16.7,30.02,SSW,204,3.1,3.1,55,0.00,,---,0.04,VWS V14.00,2013-03-15 01:42:00,
2013-03-14 20:47:00,30.7,16.9,30.02,SW,222,4.0,4.0,56,0.00,,---,0.04,VWS V14.00,2013-03-15 01:47:00,
2013-03-14 20:52:00,30.6,17.1,30.02,SW,217,3.1,4.9,57,0.00,,---,0.04,VWS V14.00,2013-03-15 01:52:00,
2013-03-14 20:57:00,30.2,17.2,30.02,SSW,210,2.7,2.7,58,0.00,,---,0.04,VWS V14.00,2013-03-15 01:57:00,
2013-03-14 21:02:00,30.0,17.0,30.02,SSW,210,2.7,3.1,58,0.00,,---,0.04,VWS V14.00,2013-03-15 02:02:00,
2013-03-14 21:07:00,29.7,16.7,30.02,SSW,207,4.0,4.0,58,0.00,,---,0.04,VWS V14.00,2013-03-15 02:07:00,
2013-03-14 21:12:00,29.5,16.5,30.02,SSW,212,0.0,2.7,58,0.00,,---,0.04,VWS V14.00,2013-03-15 02:12:00,
2013-03-14 21:17:00,29.5,16.9,30.02,SSW,212,2.2,2.7,59,0.00,,---,0.04,VWS V14.00,2013-03-15 02:17:00,
2013-03-14 21:22:00,29.1,16.6,30.02,SSW,193,0.0,2.7,59,0.00,,---,0.04,VWS V14.00,2013-03-15 02:22:00,
2013-03-14 21:27:00,28.8,16.2,29.99,SSW,193,0.0,0.0,59,0.00,,---,0.04,VWS V14.00,2013-03-15 02:27:00,
2013-03-14 21:32:00,28.6,16.1,29.99,SSW,193,0.0,2.2,59,0.00,,---,0.04,VWS V14.00,2013-03-15 02:32:00,
2013-03-14 21:37:00,28.0,15.6,29.99,SSW,193,0.0,0.0,59,0.00,,---,0.04,VWS V14.00,2013-03-15 02:37:00,
2013-03-14 21:42:00,27.7,15.2,29.99,SSW,193,0.0,0.0,59,0.00,,---,0.04,VWS V14.00,2013-03-15 02:42:00,
2013-03-14 21:47:00,27.3,14.9,29.99,SSW,193,0.0,0.0,59,0.00,,---,0.04,VWS V14.00,2013-03-15 02:47:00,
2013-03-14 21:52:00,27.0,14.6,29.99,SSW,193,0.0,0.0,59,0.00,,---,0.04,VWS V14.00,2013-03-15 02:52:00,
2013-03-14 21:57:00,26.6,14.6,29.99,SSW,193,0.0,0.0,60,0.00,,---,0.04,VWS V14.00,2013-03-15 02:57:00,
2013-03-14 22:02:00,26.2,14.3,29.99,SSW,193,0.0,0.0,60,0.00,,---,0.04,VWS V14.00,2013-03-15 03:02:00,
2013-03-14 22:07:00,26.1,14.5,29.99,SSW,193,0.0,0.0,61,0.00,,---,0.04,VWS V14.00,2013-03-15 03:07:00,
2013-03-14 22:13:00,26.1,14.5,30.02,SSW,193,0.0,0.0,61,0.00,,---,0.04,VWS V14.00,2013-03-15 03:13:00,
2013-03-14 22:18:00,25.9,14.7,30.02,SSW,193,0.0,0.0,62,0.00,,---,0.04,VWS V14.00,2013-03-15 03:18:00,
2013-03-14 22:23:00,25.9,14.7,30.02,SSW,193,0.0,0.0,62,0.00,,---,0.04,VWS V14.00,2013-03-15 03:23:00,
2013-03-14 22:28:00,25.5,14.3,29.99,SSW,193,0.0,0.0,62,0.00,,---,0.04,VWS V14.00,2013-03-15 03:28:00,
2013-03-14 22:33:00,25.3,14.2,29.99,SSW,193,0.0,0.0,62,0.00,,---,0.04,VWS V14.00,2013-03-15 03:33:00,
2013-03-14 22:38:00,25.3,14.5,29.99,SSW,193,0.0,0.0,63,0.00,,---,0.04,VWS V14.00,2013-03-15 03:38:00,
2013-03-14 22:43:00,25.2,14.4,30.02,SSW,193,0.0,0.0,63,0.00,,---,0.04,VWS V14.00,2013-03-15 03:43:00,
2013-03-14 22:48:00,25.0,14.2,30.02,SSW,193,0.0,0.0,63,0.00,,---,0.04,VWS V14.00,2013-03-15 03:48:00,
2013-03-14 22:53:00,24.8,14.7,30.02,SSW,193,0.0,0.0,65,0.00,,---,0.04,VWS V14.00,2013-03-15 03:53:00,
2013-03-14 22:58:00,24.6,14.6,29.99,SSW,193,0.0,0.0,65,0.00,,---,0.04,VWS V14.00,2013-03-15 03:58:00,
2013-03-14 23:00:00,24.6,14.6,29.99,SSW,193,0.0,0.0,65,0.00,,---,0.04,VWS V14.00,2013-03-15 04:00:00,
2013-03-14 23:05:00,24.8,15.1,29.99,SSW,193,0.0,0.0,66,0.00,,---,0.04,VWS V14.00,2013-03-15 04:05:00,
2013-03-14 23:10:00,25.2,15.8,29.99,SSW,193,0.0,0.0,67,0.00,,---,0.04,VWS V14.00,2013-03-15 04:10:00,
2013-03-14 23:15:00,25.5,16.4,30.02,SSW,193,0.0,0.0,68,0.00,,---,0.04,VWS V14.00,2013-03-15 04:15:00,
2013-03-14 23:20:00,25.9,16.8,30.02,SSW,193,0.0,0.0,68,0.00,,---,0.04,VWS V14.00,2013-03-15 04:20:00,
2013-03-14 23:25:00,26.1,17.0,30.02,SSW,193,0.0,0.0,68,0.00,,---,0.04,VWS V14.00,2013-03-15 04:25:00,
2013-03-14 23:30:00,26.2,17.5,29.99,SSW,193,0.0,0.0,69,0.00,,---,0.04,VWS V14.00,2013-03-15 04:30:00,
2013-03-14 23:35:00,26.4,17.6,29.99,SSW,193,0.0,0.0,69,0.00,,---,0.04,VWS V14.00,2013-03-15 04:35:00,
2013-03-14 23:40:00,26.8,18.0,29.99,SSW,193,0.0,0.0,69,0.00,,---,0.04,VWS V14.00,2013-03-15 04:40:00,
2013-03-14 23:45:00,27.0,18.2,29.99,SSW,193,0.0,0.0,69,0.00,,---,0.04,VWS V14.00,2013-03-15 04:45:00,
2013-03-14 23:50:00,27.1,18.7,29.99,SSW,193,0.0,0.0,70,0.00,,---,0.04,VWS V14.00,2013-03-15 04:50:00,
2013-03-14 23:55:00,27.3,18.8,29.99,SSW,193,0.0,0.0,70,0.00,,---,0.04,VWS V14.00,2013-03-15 04:55:00,